Time;durP1;ratioP1;P1;durP2;ratioP2;P2;SDS_P1;SDS_P2;PMS_P1;PMS_P2;Temp;Humidity;BMP_temperature;BMP_pressure;BME280_temperature;BME280_humidity;BME280_pressure;Samples;Min_cycle;Max_cycle;Signal;HPM_P1;HPM_P2
2023/01/26 00:01:19;;;;;;;62.65;32.63;;;;;;;1.68;71.48;100757.81;5045369;28;20040;-77
2023/01/26 00:03:45;;;;;;;61.53;32.78;;;;;;;1.56;71.61;100752.88;5045485;28;20025;-79
2023/01/26 00:06:12;;;;;;;64.70;37.33;;;;;;;1.54;71.23;100740.63;5044970;28;20056;-79
2023/01/26 00:08:46;;;;;;;66.18;34.08;;;;;;;1.48;72.27;100740.34;5043981;28;20033;-79
2023/01/26 00:11:14;;;;;;;66.13;38.50;;;;;;;1.48;72.58;100729.59;5044312;28;20056;-79
2023/01/26 00:13:40;;;;;;;67.40;35.90;;;;;;;1.62;72.27;100732.50;5045320;28;20034;-78
2023/01/26 00:16:12;;;;;;;52.75;32.10;;;;;;;1.54;70.83;100722.66;5044759;28;20615;-78
2023/01/26 00:18:38;;;;;;;56.78;33.10;;;;;;;1.33;72.04;100720.63;5043430;28;20032;-79
2023/01/26 00:21:04;;;;;;;63.20;34.10;;;;;;;1.31;72.02;100711.91;5045405;28;20470;-79
2023/01/26 00:23:31;;;;;;;62.90;35.17;;;;;;;1.39;71.99;100710.00;5045479;28;20039;-80
2023/01/26 00:25:57;;;;;;;58.72;32.88;;;;;;;1.46;71.91;100694.00;5045280;28;21320;-79
2023/01/26 00:28:22;;;;;;;57.42;32.65;;;;;;;1.42;71.49;100695.38;5043883;28;20029;-79
2023/01/26 00:30:48;;;;;;;57.72;30.98;;;;;;;1.45;71.69;100692.31;5045314;28;20056;-80
2023/01/26 00:33:13;;;;;;;61.65;31.45;;;;;;;1.51;71.04;100688.03;5044982;28;20052;-79
2023/01/26 00:35:43;;;;;;;61.83;32.25;;;;;;;1.50;70.97;100678.31;5045263;28;20041;-80
2023/01/26 00:38:11;;;;;;;68.60;36.38;;;;;;;1.42;71.48;100671.19;5042872;28;20045;-78
2023/01/26 00:40:38;;;;;;;52.38;29.02;;;;;;;1.45;71.28;100661.88;5043730;28;20049;-79
2023/01/26 00:43:03;;;;;;;61.25;31.15;;;;;;;1.37;71.70;100666.34;5045132;28;20381;-79
2023/01/26 00:45:28;;;;;;;74.65;38.35;;;;;;;1.34;72.22;100650.56;5044063;28;20079;-78
2023/01/26 00:47:53;;;;;;;68.70;33.57;;;;;;;1.43;72.27;100654.00;5043250;28;20148;-81
2023/01/26 00:50:19;;;;;;;64.60;31.60;;;;;;;1.42;72.04;100649.69;5044256;28;20278;-79
2023/01/26 00:52:44;;;;;;;65.82;32.90;;;;;;;1.33;72.31;100646.22;5045037;28;20270;-79
2023/01/26 00:55:09;;;;;;;70.68;38.75;;;;;;;1.40;72.39;100649.03;5044402;28;20102;-79
2023/01/26 00:57:34;;;;;;;64.95;32.88;;;;;;;1.42;72.79;100644.31;5043155;28;20063;-77
2023/01/26 01:00:00;;;;;;;60.90;36.13;;;;;;;1.23;73.32;100651.00;5044320;28;20536;-79
2023/01/26 01:02:25;;;;;;;56.90;34.28;;;;;;;1.30;73.29;100651.13;5044332;28;20361;-79
2023/01/26 01:04:50;;;;;;;60.08;31.30;;;;;;;1.36;73.20;100650.41;5044342;28;20459;-79
2023/01/26 01:07:16;;;;;;;73.82;34.75;;;;;;;1.42;73.59;100648.84;5043871;28;20029;-79
2023/01/26 01:09:41;;;;;;;55.35;33.92;;;;;;;1.46;73.54;100642.06;5043221;28;20175;-79
2023/01/26 01:12:07;;;;;;;54.15;33.10;;;;;;;1.51;73.58;100639.66;5043057;28;20768;-78
2023/01/26 01:14:32;;;;;;;66.57;36.00;;;;;;;1.59;72.96;100639.59;5043834;28;20029;-78
2023/01/26 01:16:58;;;;;;;64.05;33.28;;;;;;;1.51;72.88;100640.50;5043008;28;20029;-79
2023/01/26 01:19:23;;;;;;;63.45;34.92;;;;;;;1.53;73.35;100639.50;5041967;28;20040;-79
2023/01/26 01:21:48;;;;;;;58.45;32.70;;;;;;;1.63;73.58;100635.50;5044071;28;20041;-78
2023/01/26 01:24:14;;;;;;;60.80;33.55;;;;;;;1.65;73.22;100631.81;5043643;28;20485;-79
2023/01/26 01:26:39;;;;;;;61.10;32.42;;;;;;;1.59;73.81;100628.00;5043710;28;20037;-79
2023/01/26 01:29:06;;;;;;;62.13;32.95;;;;;;;1.58;72.85;100627.19;5042161;28;20052;-78
2023/01/26 01:31:32;;;;;;;69.50;36.40;;;;;;;1.46;73.88;100631.31;5043930;28;20473;-78
2023/01/26 01:33:57;;;;;;;57.53;32.42;;;;;;;1.43;73.58;100624.44;5044331;28;20071;-79
2023/01/26 01:36:22;;;;;;;67.23;36.20;;;;;;;1.40;74.77;100614.09;5042985;28;20406;-78
2023/01/26 01:38:48;;;;;;;71.95;34.80;;;;;;;1.47;73.94;100612.31;5042290;28;20297;-79
2023/01/26 01:41:16;;;;;;;66.53;34.58;;;;;;;1.52;74.12;100617.16;5042813;28;20041;-79
2023/01/26 01:43:41;;;;;;;64.93;34.63;;;;;;;1.55;74.15;100615.94;5043803;28;20037;-78
2023/01/26 01:46:13;;;;;;;74.25;35.47;;;;;;;1.46;74.35;100621.41;5043289;28;20075;-78
2023/01/26 01:48:44;;;;;;;62.58;36.38;;;;;;;1.46;74.58;100624.09;5042179;28;20036;-79
2023/01/26 01:51:19;;;;;;;64.30;32.97;;;;;;;1.50;74.73;100628.09;5043187;28;20037;-79
2023/01/26 01:53:49;;;;;;;61.15;32.75;;;;;;;1.37;75.16;100622.50;5043976;28;20120;-78
2023/01/26 01:56:20;;;;;;;62.33;32.65;;;;;;;1.42;75.00;100619.28;5041780;28;20053;-78
2023/01/26 01:58:49;;;;;;;70.65;33.50;;;;;;;1.42;75.43;100620.09;5037393;28;20028;-79
2023/01/26 02:01:14;;;;;;;58.78;30.67;;;;;;;1.48;74.50;100615.84;5041577;28;20410;-79
2023/01/26 02:03:43;;;;;;;57.42;31.85;;;;;;;1.56;74.97;100609.56;5041550;28;20029;-79
2023/01/26 02:06:17;;;;;;;66.63;32.55;;;;;;;1.54;74.26;100607.06;5042624;28;20067;-79
2023/01/26 02:08:46;;;;;;;58.08;30.27;;;;;;;1.58;74.24;100618.28;5040682;28;20561;-78
2023/01/26 02:11:43;;;;;;;64.18;31.25;;;;;;;1.57;74.89;100603.97;5041701;28;20037;-78
2023/01/26 02:14:11;;;;;;;57.03;29.00;;;;;;;1.53;75.43;100602.69;5041298;28;20078;-78
2023/01/26 02:16:38;;;;;;;57.13;30.88;;;;;;;1.61;74.57;100607.13;5042671;28;20037;-79
2023/01/26 02:19:11;;;;;;;57.67;31.35;;;;;;;1.69;74.62;100590.09;5040609;28;20071;-79
2023/01/26 02:21:38;;;;;;;51.08;27.77;;;;;;;1.61;75.09;100585.63;5042358;28;20037;-78
2023/01/26 02:24:10;;;;;;;59.70;30.77;;;;;;;1.65;74.67;100583.44;5042394;28;20493;-77
2023/01/26 02:26:36;;;;;;;58.83;31.10;;;;;;;1.63;74.90;100591.66;5041950;28;20041;-78
2023/01/26 02:29:05;;;;;;;58.10;30.77;;;;;;;1.68;75.18;100589.25;5040296;28;20122;-77
2023/01/26 02:31:30;;;;;;;55.85;27.83;;;;;;;1.66;74.98;100591.31;5042611;28;20100;-80
2023/01/26 02:33:56;;;;;;;59.25;29.42;;;;;;;1.73;74.88;100592.22;5042019;28;20048;-79
2023/01/26 02:36:27;;;;;;;58.20;29.67;;;;;;;1.65;74.81;100583.44;5042159;28;20090;-78
2023/01/26 02:39:19;;;;;;;57.67;31.98;;;;;;;1.70;75.39;100583.69;5040634;28;20029;-78
2023/01/26 02:44:31;;;;;;;49.78;29.13;;;;;;;1.54;75.37;100582.03;5042464;28;20044;-78
2023/01/26 02:46:56;;;;;;;70.63;31.38;;;;;;;1.51;75.48;100585.91;5040723;28;20482;-78
2023/01/26 02:52:07;;;;;;;59.15;34.42;;;;;;;1.53;76.12;100589.25;5042130;28;21145;-78
2023/01/26 02:57:16;;;;;;;71.00;36.08;;;;;;;1.52;75.44;100574.16;5041865;28;20126;-79
2023/01/26 02:59:41;;;;;;;76.43;38.80;;;;;;;1.39;76.02;100577.47;5041085;28;20037;-79
2023/01/26 03:02:07;;;;;;;70.80;37.07;;;;;;;1.49;76.17;100582.56;5042253;28;20037;-79
2023/01/26 03:04:32;;;;;;;85.32;39.85;;;;;;;1.48;75.47;100587.13;5042523;28;20928;-79
2023/01/26 03:06:57;;;;;;;65.03;36.40;;;;;;;1.45;75.54;100581.25;5042129;28;20459;-79
2023/01/26 03:09:22;;;;;;;72.75;36.05;;;;;;;1.31;76.96;100582.91;5041025;28;20029;-76
2023/01/26 03:11:48;;;;;;;73.30;33.40;;;;;;;1.43;76.84;100576.06;5042611;28;20059;-79
2023/01/26 03:14:14;;;;;;;66.68;36.25;;;;;;;1.53;76.26;100580.38;5041963;28;20304;-78
2023/01/26 03:16:39;;;;;;;87.45;41.25;;;;;;;1.55;76.37;100581.81;5042286;28;20124;-77
2023/01/26 03:27:26;;;;;;;61.70;35.20;;;;;;;1.47;76.26;100572.00;5045175;28;20047;-78
2023/01/26 03:29:52;;;;;;;76.68;42.17;;;;;;;1.54;76.74;100571.28;5044672;28;20048;-79
2023/01/26 03:32:18;;;;;;;77.05;39.47;;;;;;;1.45;76.63;100567.81;5045718;28;20029;-80
2023/01/26 03:34:44;;;;;;;63.40;32.90;;;;;;;1.49;76.85;100569.97;5045928;28;20047;-79
2023/01/26 03:37:10;;;;;;;76.28;38.08;;;;;;;1.54;76.07;100565.88;5044813;28;20033;-79
2023/01/26 03:56:21;;;;;;;65.45;35.88;;;;;;;1.56;76.49;100567.38;5044168;28;20051;-77
2023/01/26 03:58:52;;;;;;;77.28;39.38;;;;;;;1.50;76.97;100568.97;5043142;28;20037;-78
2023/01/26 04:01:20;;;;;;;62.55;33.70;;;;;;;1.58;76.34;100567.19;5044998;28;20056;-77
2023/01/26 04:09:15;;;;;;;;;;;;;;;1.32;78.46;100573.84;5043436;28;20057;-78
2023/01/26 04:11:41;;;;;;;62.07;33.93;;;;;;;1.39;77.87;100572.94;5044366;28;19920;-78
2023/01/26 04:22:22;;;;;;;60.38;31.17;;;;;;;1.27;79.06;100566.31;5044620;28;20419;-79
2023/01/26 04:24:47;;;;;;;69.20;34.70;;;;;;;1.38;78.48;100562.38;5043133;28;20041;-78
2023/01/26 04:27:12;;;;;;;70.10;35.23;;;;;;;1.47;78.31;100555.88;5043250;28;20262;-78
2023/01/26 04:29:37;;;;;;;80.18;36.35;;;;;;;1.60;78.14;100557.09;5043108;28;20558;-79
2023/01/26 04:32:03;;;;;;;68.30;34.65;;;;;;;1.62;77.61;100552.38;5044165;28;20054;-79
2023/01/26 04:34:28;;;;;;;62.25;35.00;;;;;;;1.49;77.19;100548.47;5044479;28;20041;-79
2023/01/26 04:36:53;;;;;;;66.88;34.60;;;;;;;1.44;78.10;100550.03;5043591;28;20028;-78
2023/01/26 04:39:19;;;;;;;71.57;40.37;;;;;;;1.54;77.75;100555.97;5042398;28;20153;-78
2023/01/26 04:41:44;;;;;;;61.38;31.83;;;;;;;1.66;77.25;100548.28;5044022;28;20324;-79
2023/01/26 04:44:09;;;;;;;76.50;35.13;;;;;;;1.78;77.42;100553.19;5043713;28;20059;-76
2023/01/26 04:46:35;;;;;;;68.20;35.70;;;;;;;1.75;77.03;100549.84;5043618;28;20829;-78
2023/01/26 04:49:00;;;;;;;62.65;35.72;;;;;;;1.77;76.92;100551.53;5042272;28;20961;-79
2023/01/26 04:51:27;;;;;;;64.55;39.88;;;;;;;1.77;76.92;100559.59;5043830;28;20273;-79
2023/01/26 04:53:52;;;;;;;67.45;39.10;;;;;;;1.75;76.81;100554.38;5043884;28;20037;-79
2023/01/26 04:56:30;;;;;;;65.13;37.15;;;;;;;1.69;77.00;100547.91;5043144;28;20036;-78
2023/01/26 04:58:59;;;;;;;74.32;37.25;;;;;;;1.69;77.02;100545.22;5041559;28;20267;-78
2023/01/26 05:01:24;;;;;;;70.07;37.53;;;;;;;1.69;77.17;100558.66;5043422;28;20039;-79
2023/01/26 05:03:49;;;;;;;69.93;37.92;;;;;;;1.68;77.43;100557.00;5043142;28;20482;-78
2023/01/26 05:06:15;;;;;;;71.80;38.50;;;;;;;1.79;76.94;100552.97;5043715;28;20429;-79
2023/01/26 05:08:41;;;;;;;68.88;38.42;;;;;;;1.75;76.50;100547.16;5041582;28;20068;-79
2023/01/26 05:11:06;;;;;;;57.38;32.05;;;;;;;1.81;77.07;100542.06;5043229;28;20041;-79
2023/01/26 05:13:34;;;;;;;59.55;35.08;;;;;;;1.79;76.94;100544.09;5043146;28;20425;-79
2023/01/26 05:15:59;;;;;;;56.85;28.90;;;;;;;1.81;76.54;100550.13;5042991;28;20128;-79
2023/01/26 05:18:25;;;;;;;64.28;34.15;;;;;;;1.73;76.98;100549.19;5041320;28;20108;-78
2023/01/26 05:20:50;;;;;;;57.63;32.17;;;;;;;1.54;77.04;100549.75;5042986;28;20068;-79
2023/01/26 05:23:15;;;;;;;68.53;36.55;;;;;;;1.59;76.88;100553.56;5042622;28;20693;-79
2023/01/26 05:25:41;;;;;;;57.38;35.15;;;;;;;1.60;77.26;100565.16;5042872;28;20494;-79
2023/01/26 05:28:06;;;;;;;64.10;34.58;;;;;;;1.59;77.01;100552.72;5041090;28;20033;-79
2023/01/26 05:30:31;;;;;;;73.03;38.25;;;;;;;1.51;77.22;100551.81;5043116;28;20040;-78
2023/01/26 05:33:04;;;;;;;70.20;42.50;;;;;;;1.59;77.63;100552.72;5042880;28;20052;-79
2023/01/26 05:35:30;;;;;;;80.63;39.47;;;;;;;1.60;77.90;100554.41;5042872;28;20477;-79
2023/01/26 05:37:56;;;;;;;74.28;41.17;;;;;;;1.66;77.72;100553.66;5040895;28;20048;-78
2023/01/26 05:40:22;;;;;;;74.60;40.70;;;;;;;1.69;76.84;100545.22;5042399;28;20033;-78
2023/01/26 05:42:47;;;;;;;68.15;40.78;;;;;;;1.70;77.44;100549.56;5042546;28;20079;-79
2023/01/26 05:45:13;;;;;;;70.80;37.50;;;;;;;1.76;77.03;100556.06;5042572;28;20045;-79
2023/01/26 05:47:38;;;;;;;78.00;41.47;;;;;;;1.82;77.06;100558.00;5040132;28;20060;-78
2023/01/26 05:50:04;;;;;;;69.45;38.33;;;;;;;1.86;76.72;100558.47;5042646;28;20063;-79
2023/01/26 05:52:30;;;;;;;70.65;37.10;;;;;;;1.83;76.97;100556.16;5042996;28;20029;-78
2023/01/26 05:54:55;;;;;;;76.88;36.95;;;;;;;1.75;77.36;100563.28;5043101;28;20040;-78
2023/01/26 05:57:20;;;;;;;70.35;34.88;;;;;;;1.77;76.87;100564.97;5042112;28;20409;-78
2023/01/26 05:59:46;;;;;;;63.63;35.53;;;;;;;1.83;77.35;100567.72;5041529;28;20040;-79
2023/01/26 06:02:11;;;;;;;64.63;35.90;;;;;;;1.81;77.82;100572.47;5042736;28;20111;-78
2023/01/26 06:04:37;;;;;;;67.93;35.40;;;;;;;1.80;76.79;100569.97;5042702;28;20343;-79
2023/01/26 06:07:03;;;;;;;71.65;35.10;;;;;;;1.78;77.33;100572.00;5042596;28;20033;-79
2023/01/26 06:09:28;;;;;;;62.85;36.65;;;;;;;1.73;77.38;100576.09;5040950;28;20123;-78
2023/01/26 06:11:55;;;;;;;83.50;40.92;;;;;;;1.84;77.20;100572.09;5042412;28;20119;-79
2023/01/26 06:14:21;;;;;;;89.10;43.60;;;;;;;1.87;77.26;100576.28;5042622;28;20029;-77
2023/01/26 06:16:46;;;;;;;72.03;37.63;;;;;;;1.77;77.36;100573.03;5043054;28;20025;-78
2023/01/26 06:19:11;;;;;;;84.70;42.33;;;;;;;1.87;77.39;100576.28;5040623;28;20116;-77
2023/01/26 06:21:37;;;;;;;75.85;43.20;;;;;;;1.90;77.11;100573.19;5042789;28;20020;-79
2023/01/26 06:24:02;;;;;;;80.90;42.77;;;;;;;1.82;77.94;100576.84;5042547;28;21172;-79
2023/01/26 06:26:28;;;;;;;82.35;43.63;;;;;;;1.81;77.25;100579.72;5042308;28;20273;-78
2023/01/26 06:28:53;;;;;;;89.15;43.45;;;;;;;1.82;77.85;100584.06;5041291;28;20080;-78
2023/01/26 06:31:19;;;;;;;68.50;36.00;;;;;;;1.86;77.40;100575.44;5042015;28;20033;-79
2023/01/26 06:33:45;;;;;;;65.10;34.88;;;;;;;1.68;77.59;100565.06;5042492;28;20036;-79
2023/01/26 06:36:13;;;;;;;76.60;41.20;;;;;;;1.68;78.33;100573.13;5042485;28;20040;-79
2023/01/26 06:38:44;;;;;;;64.20;34.47;;;;;;;1.71;77.93;100572.75;5041105;28;20394;-79
2023/01/26 06:41:10;;;;;;;75.38;39.40;;;;;;;1.89;77.59;100563.47;5042227;28;20029;-79
2023/01/26 06:43:35;;;;;;;92.75;43.45;;;;;;;1.87;77.87;100570.91;5042472;28;20371;-80
2023/01/26 06:46:02;;;;;;;56.33;29.58;;;;;;;1.86;77.44;100571.91;5042638;28;20057;-79
2023/01/26 06:48:29;;;;;;;61.13;34.95;;;;;;;1.74;77.04;100580.47;5040928;28;20525;-79
2023/01/26 06:51:21;;;;;;;67.45;32.85;;;;;;;1.79;78.30;100579.06;5042524;28;20048;-79
2023/01/26 06:53:51;;;;;;;62.38;31.05;;;;;;;1.76;77.79;100577.56;5042551;28;20044;-79
2023/01/26 06:56:16;;;;;;;54.28;35.42;;;;;;;1.77;77.32;100576.53;5041931;28;20037;-78
2023/01/26 06:58:41;;;;;;;57.92;31.90;;;;;;;1.92;77.73;100581.06;5040861;28;20090;-78
2023/01/26 07:01:13;;;;;;;59.53;31.85;;;;;;;1.92;77.53;100573.00;5045842;28;20036;-77
2023/01/26 07:03:38;;;;;;;57.95;33.53;;;;;;;1.85;77.10;100572.94;5046283;28;20037;-79
2023/01/26 07:06:04;;;;;;;66.10;33.60;;;;;;;1.90;77.45;100575.91;5046210;28;20090;-77
2023/01/26 07:08:30;;;;;;;62.20;33.55;;;;;;;1.85;77.41;100568.38;5044027;28;20382;-79
2023/01/26 07:10:55;;;;;;;65.85;34.17;;;;;;;1.77;77.56;100571.16;5045845;28;20024;-78
2023/01/26 07:13:20;;;;;;;60.95;35.35;;;;;;;1.82;77.81;100562.53;5045638;28;20743;-78
2023/01/26 07:15:46;;;;;;;56.73;34.40;;;;;;;1.77;77.97;100573.84;5045711;28;20331;-79
2023/01/26 07:18:11;;;;;;;71.57;34.95;;;;;;;1.88;78.08;100574.41;5043958;28;20285;-78
2023/01/26 07:20:36;;;;;;;50.05;31.38;;;;;;;1.87;77.98;100570.91;5045845;28;20592;-79
2023/01/26 07:23:01;;;;;;;57.22;32.03;;;;;;;1.95;77.87;100572.66;5045551;28;20071;-78
2023/01/26 07:25:27;;;;;;;61.97;33.35;;;;;;;1.86;76.94;100569.22;5045412;28;20032;-78
2023/01/26 07:27:56;;;;;;;54.13;32.42;;;;;;;1.90;77.31;100567.81;5044130;28;20033;-79
2023/01/26 07:30:22;;;;;;;56.47;32.30;;;;;;;1.88;77.40;100571.72;5044937;28;20033;-78
2023/01/26 07:32:47;;;;;;;57.42;32.55;;;;;;;1.91;77.48;100582.94;5044727;28;20067;-78
2023/01/26 07:35:12;;;;;;;54.77;31.40;;;;;;;1.96;77.84;100583.22;5044767;28;20540;-78
2023/01/26 07:37:37;;;;;;;50.80;29.02;;;;;;;1.97;77.28;100579.50;5043974;28;20266;-79
2023/01/26 07:40:04;;;;;;;48.42;26.63;;;;;;;1.89;77.37;100576.94;5044915;28;20036;-78
2023/01/26 07:42:30;;;;;;;56.58;29.17;;;;;;;1.93;77.09;100569.31;5045000;28;20533;-78
2023/01/26 07:44:55;;;;;;;60.78;30.85;;;;;;;1.97;77.07;100576.00;5044546;28;20060;-79
2023/01/26 07:47:20;;;;;;;42.97;27.67;;;;;;;1.94;77.18;100569.13;5044314;28;20473;-78
2023/01/26 07:49:46;;;;;;;47.13;27.17;;;;;;;1.94;77.55;100576.34;5043560;28;20373;-79
2023/01/26 07:52:11;;;;;;;58.22;29.67;;;;;;;2.05;77.35;100566.97;5045296;28;20516;-79
2023/01/26 07:54:37;;;;;;;44.67;24.58;;;;;;;2.01;77.35;100579.13;5045248;28;20433;-80
2023/01/26 07:57:02;;;;;;;56.63;31.27;;;;;;;1.97;77.21;100571.41;5045006;28;20037;-79
2023/01/26 07:59:27;;;;;;;53.33;27.48;;;;;;;1.93;77.25;100567.44;5043107;28;20511;-79
2023/01/26 08:01:53;;;;;;;40.38;24.88;;;;;;;1.83;77.01;100578.47;5044830;28;20029;-78
2023/01/26 08:04:18;;;;;;;46.45;22.98;;;;;;;1.80;77.85;100575.34;5044345;28;20075;-77
2023/01/26 08:06:43;;;;;;;39.83;22.83;;;;;;;1.86;78.23;100574.59;5045560;28;20174;-78
2023/01/26 08:09:09;;;;;;;47.22;25.17;;;;;;;1.85;77.85;100576.44;5043761;28;20432;-77
2023/01/26 08:11:34;;;;;;;50.72;28.10;;;;;;;2.02;77.74;100572.72;5043770;28;20045;-78
2023/01/26 08:14:00;;;;;;;55.00;26.92;;;;;;;2.02;77.24;100572.72;5044754;28;20285;-78
2023/01/26 08:16:25;;;;;;;53.08;25.52;;;;;;;1.93;76.81;100575.50;5044532;28;20115;-78
2023/01/26 08:18:50;;;;;;;48.55;27.08;;;;;;;1.67;77.69;100586.75;5042585;28;20139;-81
2023/01/26 08:21:17;;;;;;;56.38;25.90;;;;;;;1.76;78.57;100585.63;5044519;28;20044;-77
2023/01/26 08:23:46;;;;;;;45.67;25.27;;;;;;;1.88;78.86;100594.06;5043150;28;20035;-78
2023/01/26 08:26:12;;;;;;;45.25;25.20;;;;;;;1.80;77.78;100596.84;5044183;28;20647;-77
2023/01/26 08:28:38;;;;;;;55.47;26.60;;;;;;;1.94;78.20;100595.19;5043048;28;20359;-78
2023/01/26 08:31:24;;;;;;;49.95;25.45;;;;;;;2.09;77.35;100592.47;5044616;28;20532;-79
2023/01/26 08:33:51;;;;;;;47.20;25.27;;;;;;;2.03;77.89;100602.16;5044724;28;20032;-79
2023/01/26 08:36:17;;;;;;;38.17;22.58;;;;;;;1.94;77.30;100605.94;5044749;28;20541;-80
2023/01/26 08:38:43;;;;;;;53.65;28.40;;;;;;;2.01;77.87;100608.72;5043219;28;20057;-80
2023/01/26 08:41:08;;;;;;;49.67;25.58;;;;;;;1.97;77.75;100603.69;5044513;28;20033;-79
2023/01/26 08:43:34;;;;;;;52.72;27.15;;;;;;;2.04;77.75;100613.72;5044384;28;20116;-80
2023/01/26 08:45:59;;;;;;;44.40;22.90;;;;;;;2.03;77.93;100607.53;5044456;28;20053;-77
2023/01/26 08:48:25;;;;;;;49.80;24.80;;;;;;;2.00;77.95;100612.41;5041788;28;20493;-78
2023/01/26 08:50:55;;;;;;;49.40;24.42;;;;;;;2.05;78.25;100610.88;5043401;28;20037;-77
2023/01/26 08:53:21;;;;;;;40.00;23.73;;;;;;;2.02;77.57;100613.91;5043939;28;20023;-78
2023/01/26 08:55:46;;;;;;;47.55;24.83;;;;;;;2.13;77.84;100617.16;5043952;28;20040;-78
2023/01/26 08:58:11;;;;;;;41.58;23.70;;;;;;;1.83;77.86;100620.69;5041997;28;20036;-78
2023/01/26 09:00:36;;;;;;;53.83;25.73;;;;;;;1.85;78.24;100616.78;5043894;28;20064;-79
2023/01/26 09:03:03;;;;;;;47.65;25.85;;;;;;;2.01;78.51;100617.63;5041648;28;20412;-78
2023/01/26 09:05:35;;;;;;;55.60;28.30;;;;;;;2.00;78.39;100615.09;5043911;28;20558;-78
2023/01/26 09:08:02;;;;;;;38.85;24.13;;;;;;;2.01;78.20;100612.25;5041841;28;20044;-79
2023/01/26 09:10:27;;;;;;;39.47;25.02;;;;;;;2.01;78.24;100620.31;5043639;28;20764;-78
2023/01/26 09:12:53;;;;;;;62.70;30.83;;;;;;;2.16;77.95;100617.59;5042282;28;20041;-80
2023/01/26 09:15:18;;;;;;;53.17;27.57;;;;;;;2.09;77.47;100622.91;5043352;28;20064;-77
2023/01/26 09:17:43;;;;;;;47.47;24.77;;;;;;;2.11;78.11;100614.66;5042902;28;20643;-77
2023/01/26 09:20:10;;;;;;;38.97;23.47;;;;;;;2.15;78.83;100610.56;5043222;28;20066;-78
2023/01/26 09:22:36;;;;;;;37.63;22.75;;;;;;;2.24;78.32;100608.59;5043461;28;20751;-79
2023/01/26 09:25:01;;;;;;;41.47;25.10;;;;;;;2.28;78.16;100609.06;5043018;28;20036;-78
2023/01/26 09:27:27;;;;;;;56.83;27.08;;;;;;;2.31;77.83;100614.91;5042225;28;20044;-77
2023/01/26 09:29:52;;;;;;;45.50;26.25;;;;;;;2.22;77.78;100610.63;5041985;28;20086;-78
2023/01/26 09:32:18;;;;;;;48.67;26.50;;;;;;;2.37;77.78;100618.69;5042691;28;20051;-78
2023/01/26 09:34:43;;;;;;;43.28;27.42;;;;;;;2.07;77.56;100629.50;5043115;28;20041;-79
2023/01/26 09:37:09;;;;;;;45.40;27.35;;;;;;;2.05;78.78;100637.75;5042823;28;20059;-78
2023/01/26 09:39:34;;;;;;;48.87;26.57;;;;;;;1.96;79.22;100637.00;5040961;28;20044;-79
2023/01/26 09:42:18;;;;;;;51.80;24.52;;;;;;;1.99;79.11;100635.81;5042678;28;20349;-79
2023/01/26 09:44:52;;;;;;;46.97;25.95;;;;;;;1.97;79.60;100629.78;5042842;28;20078;-79
2023/01/26 09:47:32;;;;;;;51.08;26.08;;;;;;;2.06;78.99;100619.75;5041813;28;20045;-79
2023/01/26 09:50:13;;;;;;;43.63;24.70;;;;;;;2.18;79.02;100615.56;5043029;28;20044;-79
2023/01/26 09:52:55;;;;;;;48.58;26.05;;;;;;;2.24;78.96;100618.53;5043329;28;20037;-79
2023/01/26 09:55:24;;;;;;;41.75;24.15;;;;;;;2.09;79.25;100622.06;5043009;28;20033;-80
2023/01/26 09:57:54;;;;;;;46.85;26.27;;;;;;;2.13;79.33;100615.31;5040513;28;20045;-79
2023/01/26 10:01:01;;;;;;;39.42;24.23;;;;;;;2.22;79.66;100606.09;5042681;28;20067;-79
2023/01/26 10:03:46;;;;;;;44.75;24.25;;;;;;;2.18;79.17;100610.19;5030249;28;20041;-81
2023/01/26 10:06:28;;;;;;;45.95;24.98;;;;;;;2.25;79.44;100609.44;5042885;28;20048;-81
2023/01/26 10:08:58;;;;;;;46.05;27.23;;;;;;;2.35;78.70;100609.13;5041501;28;20079;-79
2023/01/26 10:11:40;;;;;;;51.53;26.77;;;;;;;2.32;78.85;100600.41;5042967;28;20048;-80
2023/01/26 10:14:18;;;;;;;50.72;27.42;;;;;;;2.24;79.58;100613.16;5041269;28;20036;-78
2023/01/26 10:16:47;;;;;;;51.83;28.08;;;;;;;2.30;79.59;100612.38;5042231;28;20072;-80
2023/01/26 10:19:20;;;;;;;57.22;29.33;;;;;;;2.29;79.11;100610.72;5041208;28;20435;-80
2023/01/26 10:21:50;;;;;;;40.40;23.00;;;;;;;2.29;79.21;100599.94;5043030;28;20044;-82
2023/01/26 10:24:20;;;;;;;47.13;25.15;;;;;;;2.36;79.37;100595.47;5042437;28;20037;-79
2023/01/26 10:26:46;;;;;;;41.28;23.33;;;;;;;2.40;78.99;100594.06;5043329;28;20036;-80
2023/01/26 10:29:15;;;;;;;46.17;23.95;;;;;;;2.41;78.77;100590.38;5040993;28;20040;-80
2023/01/26 10:31:40;;;;;;;58.95;26.30;;;;;;;2.42;79.19;100592.03;5042873;28;20441;-80
2023/01/26 10:34:16;;;;;;;45.25;25.77;;;;;;;2.49;78.82;100591.25;5043963;28;20040;-79
2023/01/26 10:36:43;;;;;;;51.80;26.70;;;;;;;2.51;78.61;100597.28;5045930;28;20025;-82
2023/01/26 10:39:11;;;;;;;51.50;25.48;;;;;;;2.49;78.92;100591.25;5045418;28;20171;-80
2023/01/26 10:41:38;;;;;;;40.65;23.50;;;;;;;2.47;79.14;100594.16;5046888;28;20608;-81
2023/01/26 10:44:09;;;;;;;54.03;24.98;;;;;;;2.43;79.02;100591.00;5046980;28;20033;-85
2023/01/26 10:46:36;;;;;;;57.00;28.40;;;;;;;2.33;79.59;100594.00;5046837;28;20052;-83
2023/01/26 10:49:07;;;;;;;46.78;23.33;;;;;;;2.26;79.72;100586.88;5044780;28;20044;-80
2023/01/26 10:51:37;;;;;;;47.20;24.55;;;;;;;2.28;79.57;100587.53;5046354;28;20037;-82
2023/01/26 10:54:23;;;;;;;42.92;23.60;;;;;;;2.43;80.02;100585.63;5046861;28;20029;-81
2023/01/26 10:56:52;;;;;;;47.70;27.17;;;;;;;2.44;79.30;100581.91;5047002;28;20041;-82
2023/01/26 10:59:24;;;;;;;45.22;23.13;;;;;;;2.43;79.62;100579.41;5044605;28;20059;-81
2023/01/26 11:02:12;;;;;;;47.63;22.77;;;;;;;2.19;80.13;100584.94;5046622;28;20021;-81
2023/01/26 11:04:38;;;;;;;35.45;22.15;;;;;;;2.28;80.30;100587.53;5046665;28;20043;-80
2023/01/26 11:07:26;;;;;;;31.58;20.98;;;;;;;2.08;80.59;100593.50;5046738;28;20021;-80
2023/01/26 11:09:52;;;;;;;51.95;21.95;;;;;;;2.21;80.65;100577.53;5044889;28;20044;-80
2023/01/26 11:12:19;;;;;;;43.47;22.98;;;;;;;2.22;80.55;100576.50;5046126;28;20033;-82
2023/01/26 11:15:04;;;;;;;33.72;19.75;;;;;;;2.37;81.32;100562.16;5046575;28;20425;-81
2023/01/26 11:17:47;;;;;;;37.22;22.35;;;;;;;2.36;80.72;100570.44;5045696;28;20032;-80
2023/01/26 11:20:32;;;;;;;36.40;20.33;;;;;;;2.54;80.08;100576.19;5045780;28;20130;-81
2023/01/26 11:23:12;;;;;;;36.13;19.63;;;;;;;2.31;80.40;100573.69;5045078;28;20068;-80
2023/01/26 11:26:22;;;;;;;42.72;21.27;;;;;;;2.56;80.38;100567.97;5046094;28;20036;-81
2023/01/26 11:29:10;;;;;;;35.22;21.83;;;;;;;2.24;80.81;100564.72;5021803;28;20493;-80
2023/01/26 11:32:05;;;;;;;44.25;23.17;;;;;;;2.23;80.87;100563.88;5022964;28;20038;-80
2023/01/26 11:34:54;;;;;;;36.58;21.02;;;;;;;2.29;81.10;100571.19;5041673;28;20047;-81
2023/01/26 11:37:53;;;;;;;29.55;17.60;;;;;;;2.07;81.80;100562.25;5045307;28;20037;-80
2023/01/26 11:40:40;;;;;;;42.45;23.05;;;;;;;2.34;82.19;100557.16;5045348;28;20341;-81
2023/01/26 11:43:26;;;;;;;32.50;19.10;;;;;;;2.32;81.32;100554.66;5045855;28;20155;-81
2023/01/26 11:46:17;;;;;;;39.17;22.73;;;;;;;2.39;82.53;100549.34;5044231;28;20063;-80
2023/01/26 11:48:54;;;;;;;35.97;22.20;;;;;;;2.54;81.66;100553.84;5044106;28;20036;-81
2023/01/26 11:51:47;;;;;;;35.28;20.55;;;;;;;2.48;81.67;100555.47;5045735;28;20544;-80
2023/01/26 11:54:33;;;;;;;38.83;19.42;;;;;;;2.67;81.16;100553.97;5045512;28;20031;-82
2023/01/26 11:57:20;;;;;;;32.17;17.40;;;;;;;2.50;81.38;100560.63;5045495;28;20060;-81
2023/01/26 11:59:59;;;;;;;37.08;20.60;;;;;;;2.19;83.40;100562.59;5044267;28;20045;-80
2023/01/26 12:02:33;;;;;;;37.65;20.42;;;;;;;2.15;83.26;100566.66;5045647;28;20029;-81
2023/01/26 12:05:22;;;;;;;33.63;19.42;;;;;;;2.24;83.39;100572.78;5044993;28;20029;-80
2023/01/26 12:07:54;;;;;;;39.50;19.00;;;;;;;2.18;83.61;100559.06;5043169;28;20037;-82
2023/01/26 12:10:29;;;;;;;40.50;23.92;;;;;;;2.22;84.58;100551.44;5045152;28;20553;-81
2023/01/26 12:13:09;;;;;;;35.47;19.17;;;;;;;2.35;84.70;100545.38;5044951;28;20037;-81